DLH265 LOWI-LOWS

Flight info

Callsign DLH265
Flight time N/A
Altitude 13000
Route RTT DCT RASTA RASTA2R
Aircraft A320/M-SDE3FGHIRWY/LB1

Departure

Time 2026-05-05 14:44
Airport Innsbruck Airport (LOWI)

Arrival

Time N/A
Airport Salzburg Airport (LOWS)
Time Latitude Longitude Altitude Speed Heading
2026-05-05 14:15 47.25828 11.35110 1904 ft 0 kts 171°
2026-05-05 14:37 47.25848 11.35107 1899 ft 4 kts 179°
2026-05-05 14:37 47.25874 11.35112 1896 ft 4 kts 208°
2026-05-05 14:37 47.25888 11.35133 1904 ft 1 kts 261°
2026-05-05 14:38 47.25888 11.35134 1904 ft 0 kts 261°
2026-05-05 14:39 47.25887 11.35125 1900 ft 4 kts 261°
2026-05-05 14:40 47.25875 11.35023 1904 ft 15 kts 260°
2026-05-05 14:40 47.25858 11.34881 1904 ft 13 kts 261°
2026-05-05 14:40 47.25846 11.34753 1904 ft 12 kts 261°
2026-05-05 14:40 47.25834 11.34636 1894 ft 13 kts 261°
2026-05-05 14:41 47.25815 11.34481 1904 ft 18 kts 259°
2026-05-05 14:41 47.25791 11.34277 1898 ft 23 kts 265°
2026-05-05 14:41 47.25771 11.34025 1904 ft 27 kts 270°
2026-05-05 14:41 47.25859 11.33778 1904 ft 28 kts 305°
2026-05-05 14:42 47.25921 11.33520 1892 ft 29 kts 264°
2026-05-05 14:42 47.25885 11.33238 1904 ft 22 kts 229°
2026-05-05 14:42 47.25863 11.33083 1902 ft 13 kts 330°
2026-05-05 14:42 47.25885 11.33111 1905 ft 4 kts 78°
2026-05-05 14:43 47.25886 11.33121 1896 ft 0 kts 80°
2026-05-05 14:43 47.25886 11.33122 1904 ft 1 kts 80°
2026-05-05 14:43 47.25916 11.33394 1904 ft 65 kts 81°
2026-05-05 14:44 47.26024 11.34402 1893 ft 131 kts 81°
2026-05-05 14:44 47.26202 11.35925 2195 ft 158 kts 78°
2026-05-05 14:44 47.26404 11.37485 2952 ft 157 kts 79°
2026-05-05 14:44 47.26616 11.39108 3523 ft 169 kts 79°
2026-05-05 14:45 47.26852 11.40899 3972 ft 184 kts 79°
2026-05-05 14:45 47.27094 11.42808 4452 ft 193 kts 79°
2026-05-05 14:45 47.27384 11.44754 4993 ft 197 kts 75°
2026-05-05 14:45 47.27761 11.46699 5586 ft 198 kts 75°
2026-05-05 14:46 47.28134 11.48628 6166 ft 199 kts 75°
2026-05-05 14:46 47.28521 11.50608 6722 ft 202 kts 75°
2026-05-05 14:46 47.28918 11.52610 7295 ft 201 kts 75°
2026-05-05 14:46 47.29309 11.54600 7718 ft 203 kts 76°
2026-05-05 14:47 47.29684 11.56591 8101 ft 206 kts 76°
2026-05-05 14:47 47.30071 11.58635 8493 ft 208 kts 76°
2026-05-05 14:47 47.30456 11.60699 8888 ft 209 kts 77°
2026-05-05 14:47 47.30831 11.62778 9289 ft 209 kts 77°
2026-05-05 14:48 47.31282 11.64798 9659 ft 212 kts 67°
2026-05-05 14:48 47.32076 11.66672 9942 ft 219 kts 57°
2026-05-05 14:48 47.32964 11.68582 10113 ft 231 kts 58°
2026-05-05 14:48 47.33882 11.70577 10309 ft 239 kts 57°
2026-05-05 14:49 47.34864 11.72688 10391 ft 264 kts 57°
2026-05-05 14:49 47.35975 11.75030 10590 ft 292 kts 56°
2026-05-05 14:49 47.37179 11.77547 10914 ft 314 kts 56°
2026-05-05 14:49 47.38491 11.80287 11180 ft 338 kts 56°
2026-05-05 14:50 47.39830 11.83294 11381 ft 361 kts 64°
2026-05-05 14:50 47.40919 11.86702 11691 ft 378 kts 66°
2026-05-05 14:50 47.42015 11.90288 12301 ft 386 kts 68°
2026-05-05 14:50 47.42890 11.94062 12739 ft 389 kts 78°
2026-05-05 14:51 47.43325 11.98020 12865 ft 395 kts 88°
2026-05-05 14:51 47.43498 12.02131 12871 ft 413 kts 88°
2026-05-05 14:51 47.43690 12.06420 12863 ft 418 kts 88°
2026-05-05 14:51 47.43902 12.10719 12869 ft 420 kts 87°
2026-05-05 14:52 47.44120 12.15007 12872 ft 419 kts 87°
2026-05-05 14:52 47.44348 12.19314 12849 ft 420 kts 87°
2026-05-05 14:52 47.44568 12.23607 12857 ft 420 kts 87°
2026-05-05 14:52 47.44781 12.27910 12869 ft 420 kts 88°
2026-05-05 14:53 47.44984 12.32165 12861 ft 420 kts 88°
2026-05-05 14:53 47.45190 12.36484 12803 ft 421 kts 88°
2026-05-05 14:53 47.45395 12.40778 12553 ft 418 kts 88°
2026-05-05 14:53 47.45598 12.45044 12313 ft 416 kts 88°
2026-05-05 14:54 47.45794 12.49291 12067 ft 414 kts 88°
2026-05-05 14:54 47.45988 12.53538 11828 ft 414 kts 88°
2026-05-05 14:54 47.46182 12.57776 11839 ft 413 kts 88°
2026-05-05 14:54 47.46374 12.62018 11837 ft 414 kts 88°
2026-05-05 14:55 47.46504 12.64946 11824 ft 414 kts 88°
2026-05-05 14:56 47.46641 12.68072 11839 ft 413 kts 88°
2026-05-05 14:56 47.46705 12.69528 11838 ft 413 kts 88°
2026-05-05 14:56 47.46783 12.71338 11821 ft 413 kts 88°
2026-05-05 14:56 47.46968 12.75577 11809 ft 413 kts 88°
2026-05-05 14:57 47.47153 12.79818 11815 ft 413 kts 88°
2026-05-05 14:57 47.47339 12.84067 11806 ft 413 kts 88°
2026-05-05 14:57 47.47415 12.85823 11803 ft 413 kts 88°
2026-05-05 14:57 47.47474 12.87244 11804 ft 413 kts 88°
2026-05-05 14:58 47.47649 12.91496 11813 ft 413 kts 88°
2026-05-05 14:58 47.47828 12.95751 11791 ft 413 kts 88°
2026-05-05 14:58 47.48015 12.99984 11800 ft 413 kts 88°
2026-05-05 14:58 47.48193 13.04172 11802 ft 414 kts 88°
2026-05-05 14:59 47.48345 13.07860 11793 ft 413 kts 88°
2026-05-05 14:59 47.48460 13.10654 11794 ft 413 kts 88°
2026-05-05 14:59 47.48536 13.12464 11797 ft 413 kts 87°
2026-05-05 14:59 47.49098 13.16638 11798 ft 416 kts 72°
2026-05-05 15:00 47.50430 13.20445 11797 ft 418 kts 55°
2026-05-05 15:00 47.51695 13.22590 11781 ft 420 kts 43°
2026-05-05 15:00 47.54957 13.25620 11789 ft 418 kts 20°
2026-05-05 15:00 47.56579 13.26323 11795 ft 416 kts 10°
2026-05-05 15:01 47.57907 13.26591 11764 ft 416 kts
2026-05-05 15:01 47.60337 13.26402 11766 ft 416 kts 349°
2026-05-05 15:01 47.62705 13.25351 11786 ft 413 kts 334°
2026-05-05 15:01 47.65170 13.23268 11660 ft 411 kts 326°
2026-05-05 15:02 47.67582 13.20983 11416 ft 409 kts 325°
2026-05-05 15:02 47.69971 13.18676 11157 ft 409 kts 325°
2026-05-05 15:02 47.72352 13.16360 10907 ft 408 kts 325°
2026-05-05 15:02 47.74720 13.14054 10653 ft 407 kts 325°
2026-05-05 15:03 47.77084 13.11759 10409 ft 405 kts 326°
2026-05-05 15:03 47.79443 13.09469 10152 ft 404 kts 326°
2026-05-05 15:03 47.81777 13.07207 9925 ft 391 kts 326°
2026-05-05 15:03 47.84007 13.05053 9819 ft 372 kts 326°
2026-05-05 15:04 47.86132 13.03003 9689 ft 355 kts 326°
2026-05-05 15:04 47.88103 13.01101 9560 ft 328 kts 326°
2026-05-05 15:04 47.89947 12.99317 9443 ft 307 kts 326°
2026-05-05 15:04 47.91723 12.97596 9340 ft 303 kts 327°
2026-05-05 15:05 47.95745 12.96482 8556 ft 308 kts 20°
2026-05-05 15:05 47.97527 12.98097 8297 ft 298 kts 46°
2026-05-05 15:05 47.98644 13.00624 7929 ft 291 kts 71°
2026-05-05 15:06 47.98923 13.03622 7145 ft 298 kts 98°
2026-05-05 15:06 47.98229 13.06550 6344 ft 306 kts 124°
2026-05-05 15:06 47.96673 13.08737 5580 ft 312 kts 153°
2026-05-05 15:06 47.94623 13.09572 5348 ft 301 kts 178°
2026-05-05 15:07 47.92631 13.09026 5246 ft 286 kts 204°
2026-05-05 15:07 47.90979 13.07570 5159 ft 265 kts 212°
2026-05-05 15:07 47.89525 13.06152 5089 ft 242 kts 213°
2026-05-05 15:07 47.88096 13.05018 5030 ft 226 kts 195°
2026-05-05 15:08 47.86593 13.04792 4841 ft 214 kts 172°
2026-05-05 15:08 47.85167 13.05212 4534 ft 202 kts 168°
2026-05-05 15:08 47.83831 13.05623 4246 ft 193 kts 168°
2026-05-05 15:08 47.82540 13.06017 4003 ft 183 kts 168°
2026-05-05 15:09 47.81346 13.06382 3753 ft 167 kts 168°
2026-05-05 15:09 47.80251 13.06717 3526 ft 155 kts 168°
2026-05-05 15:09 47.79604 13.06915 3402 ft 152 kts 168°
2026-05-05 15:09 47.79241 13.07027 3329 ft 150 kts 168°
2026-05-05 15:10 47.78224 13.07339 3132 ft 147 kts 168°
2026-05-05 15:10 47.77221 13.07632 2935 ft 147 kts 172°
2026-05-05 15:10 47.76209 13.07399 2740 ft 149 kts 204°
2026-05-05 15:10 47.75446 13.06433 2530 ft 144 kts 239°
2026-05-05 15:11 47.75142 13.05049 2351 ft 141 kts 269°
2026-05-05 15:11 47.75337 13.03642 2140 ft 139 kts 298°
2026-05-05 15:11 47.75964 13.02595 1946 ft 140 kts 327°
2026-05-05 15:11 47.76855 13.01965 1738 ft 143 kts 336°
2026-05-05 15:12 47.77777 13.01394 1574 ft 143 kts 336°
2026-05-05 15:12 47.78690 13.00795 1423 ft 139 kts 335°
2026-05-05 15:12 47.79428 13.00329 1418 ft 91 kts 337°